Time;durP1;ratioP1;P1;durP2;ratioP2;P2;SDS_P1;SDS_P2;PMS_P1;PMS_P2;Temp;Humidity;BMP_temperature;BMP_pressure;BME280_temperature;BME280_humidity;BME280_pressure;Samples;Min_cycle;Max_cycle;Signal;HPM_P1;HPM_P2
2023/04/26 00:01:56;;;;;;;9.18;2.00;;;17.30;80.10;;;;;;5095235;28;20401;-60
2023/04/26 00:04:23;;;;;;;7.18;2.22;;;17.30;76.10;;;;;;5076712;28;20066;-61
2023/04/26 00:06:49;;;;;;;6.60;2.10;;;17.20;77.30;;;;;;5093724;28;20397;-62
2023/04/26 00:09:15;;;;;;;4.70;1.75;;;17.20;80.10;;;;;;5074335;28;20052;-61
2023/04/26 00:11:41;;;;;;;5.97;2.20;;;17.20;79.00;;;;;;5068526;28;20094;-67
2023/04/26 00:14:07;;;;;;;6.78;2.40;;;;;;;;;;5076378;28;20047;-67
2023/04/26 00:16:33;;;;;;;7.90;2.10;;;;;;;;;;5074554;28;20401;-67
2023/04/26 00:19:00;;;;;;;9.07;2.15;;;;;;;;;;5089341;28;20131;-67
2023/04/26 00:21:25;;;;;;;7.30;2.08;;;17.30;80.10;;;;;;5094408;28;20084;-67
2023/04/26 00:23:51;;;;;;;5.18;2.10;;;17.20;79.90;;;;;;5095344;28;20091;-67
2023/04/26 00:26:17;;;;;;;4.82;1.70;;;;;;;;;;5112916;28;20135;-67
2023/04/26 00:28:43;;;;;;;5.38;1.98;;;17.20;79.90;;;;;;5096869;28;20051;-67
2023/04/26 00:31:13;;;;;;;7.20;2.17;;;;;;;;;;5095010;28;20400;-67
2023/04/26 00:33:40;;;;;;;5.38;2.20;;;;;;;;;;5115686;28;20407;-67
2023/04/26 00:36:06;;;;;;;4.63;1.80;;;;;;;;;;5115841;28;20044;-67
2023/04/26 00:38:31;;;;;;;5.65;2.03;;;17.30;79.90;;;;;;5114742;28;20036;-67
2023/04/26 00:40:58;;;;;;;6.40;2.00;;;;;;;;;;5097454;28;20050;-67
2023/04/26 00:43:23;;;;;;;4.78;1.67;;;17.00;79.80;;;;;;5097235;28;20189;-67
2023/04/26 00:45:49;;;;;;;4.63;1.70;;;17.00;78.50;;;;;;5112784;28;20130;-67
2023/04/26 00:48:15;;;;;;;7.03;2.08;;;16.80;79.60;;;;;;5094238;28;20757;-67
2023/04/26 00:50:41;;;;;;;5.20;1.80;;;;;;;;;;5095095;28;20054;-66
2023/04/26 00:53:07;;;;;;;8.07;1.90;;;16.90;79.60;;;;;;5060247;28;20487;-66
2023/04/26 00:55:33;;;;;;;3.97;2.03;;;16.70;79.40;;;;;;5080872;28;20504;-66
2023/04/26 00:57:59;;;;;;;4.43;1.98;;;16.90;79.50;;;;;;5093386;28;20140;-66
2023/04/26 01:00:25;;;;;;;6.25;1.75;;;16.80;79.50;;;;;;5114504;28;20036;-67
2023/04/26 01:02:51;;;;;;;4.47;1.63;;;;;;;;;;5114351;28;20058;-66
2023/04/26 01:05:17;;;;;;;6.25;1.98;;;;;;;;;;5111549;28;20126;-67
2023/04/26 01:07:44;;;;;;;6.35;1.88;;;;;;;;;;5093822;28;20039;-67
2023/04/26 01:10:10;;;;;;;4.60;1.80;;;16.70;78.90;;;;;;5079030;28;20052;-66
2023/04/26 01:12:36;;;;;;;6.60;1.92;;;;;;;;;;5095979;28;20068;-67
2023/04/26 01:15:03;;;;;;;3.67;1.52;;;16.70;77.60;;;;;;5115050;28;20055;-66
2023/04/26 01:17:29;;;;;;;6.25;1.70;;;;;;;;;;5095045;28;20427;-67
2023/04/26 01:19:55;;;;;;;7.40;2.08;;;16.50;79.30;;;;;;5096382;28;20090;-67
2023/04/26 01:22:21;;;;;;;7.28;2.00;;;17.10;79.70;;;;;;5110251;28;20524;-67
2023/04/26 01:24:49;;;;;;;3.85;1.50;;;16.90;76.90;;;;;;5059576;28;20447;-66
2023/04/26 01:27:15;;;;;;;6.50;2.58;;;;;;;;;;5060161;28;20044;-67
2023/04/26 01:29:41;;;;;;;4.45;1.73;;;17.10;79.60;;;;;;5092622;28;20048;-67
2023/04/26 01:32:08;;;;;;;5.93;1.80;;;;;;;;;;5077351;28;20077;-67
2023/04/26 01:34:33;;;;;;;6.28;2.13;;;16.80;79.40;;;;;;5110994;28;20086;-66
2023/04/26 01:37:00;;;;;;;4.20;1.73;;;;;;;;;;5113532;28;20074;-67
2023/04/26 01:39:26;;;;;;;7.65;1.85;;;16.70;79.40;;;;;;5108725;28;20059;-64
2023/04/26 01:41:53;;;;;;;4.05;1.70;;;;;;;;;;5091588;28;20051;-67
2023/04/26 01:44:19;;;;;;;6.05;1.90;;;;;;;;;;5114381;28;20044;-67
2023/04/26 01:46:44;;;;;;;4.13;1.38;;;16.80;79.50;;;;;;5093258;28;20218;-67
2023/04/26 01:49:10;;;;;;;4.38;1.67;;;16.90;79.50;;;;;;5078599;28;20130;-66
2023/04/26 01:51:36;;;;;;;4.50;1.50;;;16.60;79.30;;;;;;5114626;28;20044;-67
2023/04/26 01:54:02;;;;;;;5.00;1.63;;;16.40;79.20;;;;;;5114400;28;20090;-67
2023/04/26 01:56:28;;;;;;;4.97;1.40;;;;;;;;;;5077851;28;20504;-67
2023/04/26 01:58:55;;;;;;;5.95;1.60;;;;;;;;;;5094447;28;20119;-67
2023/04/26 02:01:21;;;;;;;4.32;1.60;;;;;;;;;;5095759;28;20032;-67
2023/04/26 02:03:48;;;;;;;4.25;1.60;;;16.70;79.40;;;;;;5095432;28;20047;-67
2023/04/26 02:06:14;;;;;;;5.07;1.73;;;;;;;;;;5079132;28;20043;-67
2023/04/26 02:08:40;;;;;;;4.97;1.40;;;16.60;79.30;;;;;;5112157;28;20081;-66
2023/04/26 02:11:05;;;;;;;4.88;1.63;;;16.80;79.40;;;;;;5095565;28;20473;-67
2023/04/26 02:13:32;;;;;;;6.32;1.77;;;;;;;;;;5107995;28;20040;-67
2023/04/26 02:15:58;;;;;;;4.40;1.65;;;16.40;76.10;;;;;;5111148;28;20532;-67
2023/04/26 02:18:24;;;;;;;3.90;1.50;;;16.30;78.60;;;;;;5095589;28;20131;-67
2023/04/26 02:20:50;;;;;;;5.03;1.55;;;16.60;77.50;;;;;;5112439;28;20485;-67
2023/04/26 02:23:16;;;;;;;7.35;1.90;;;16.70;78.90;;;;;;5113492;28;20051;-67
2023/04/26 02:25:42;;;;;;;4.90;1.48;;;;;;;;;;5112408;28;20051;-67
2023/04/26 02:28:08;;;;;;;4.45;1.38;;;16.60;76.40;;;;;;5113820;28;20052;-67
2023/04/26 02:30:34;;;;;;;5.93;1.55;;;16.60;78.20;;;;;;5093847;28;20440;-67
2023/04/26 02:33:01;;;;;;;5.78;1.58;;;;;;;;;;5113855;28;20043;-66
2023/04/26 02:35:26;;;;;;;4.35;1.58;;;16.20;79.20;;;;;;5113609;28;20048;-67
2023/04/26 02:37:52;;;;;;;4.20;1.42;;;16.50;79.30;;;;;;5095526;28;20152;-67
2023/04/26 02:40:18;;;;;;;5.78;1.73;;;16.40;75.40;;;;;;5111952;28;20396;-67
2023/04/26 02:42:44;;;;;;;5.05;1.60;;;;;;;;;;5077210;28;20057;-67
2023/04/26 02:45:10;;;;;;;6.60;1.50;;;;;;;;;;5094457;28;20051;-67
2023/04/26 02:47:37;;;;;;;4.45;1.50;;;;;;;;;;5107084;28;20093;-66
2023/04/26 02:50:06;;;;;;;5.18;1.42;;;16.70;76.10;;;;;;5111155;28;20123;-67
2023/04/26 02:52:33;;;;;;;5.28;2.15;;;;;;;;;;5093072;28;20052;-67
2023/04/26 02:54:59;;;;;;;3.80;1.48;;;16.50;79.40;;;;;;5068331;28;20553;-61
2023/04/26 02:57:25;;;;;;;3.33;1.40;;;16.40;79.40;;;;;;5112991;28;20197;-61
2023/04/26 02:59:51;;;;;;;7.10;1.80;;;16.40;78.50;;;;;;5111826;28;20134;-66
2023/04/26 03:02:17;;;;;;;5.72;1.63;;;;;;;;;;5111595;28;20035;-67
2023/04/26 03:04:43;;;;;;;2.88;1.30;;;16.30;79.40;;;;;;5111523;28;20108;-62
2023/04/26 03:07:09;;;;;;;5.15;1.63;;;;;;;;;;5094008;28;20043;-61
2023/04/26 03:09:37;;;;;;;4.00;1.35;;;;;;;;;;5109804;28;20058;-61
2023/04/26 03:12:03;;;;;;;3.60;1.48;;;16.30;75.50;;;;;;5111608;28;20043;-63
2023/04/26 03:14:29;;;;;;;3.72;1.17;;;16.40;79.40;;;;;;5093665;28;20044;-62
2023/04/26 03:16:55;;;;;;;4.60;1.67;;;;;;;;;;5112059;28;20047;-63
2023/04/26 03:19:21;;;;;;;3.13;1.42;;;16.30;79.10;;;;;;5108131;28;20063;-62
2023/04/26 03:21:47;;;;;;;5.03;1.48;;;;;;;;;;5094117;28;20144;-61
2023/04/26 03:24:12;;;;;;;6.18;1.40;;;16.50;79.20;;;;;;5112171;28;20427;-61
2023/04/26 03:26:38;;;;;;;3.40;1.60;;;16.60;78.80;;;;;;5093667;28;20115;-62
2023/04/26 03:29:05;;;;;;;6.22;1.70;;;;;;;;;;5093630;28;20527;-63
2023/04/26 03:31:31;;;;;;;4.32;1.58;;;;;;;;;;5092752;28;20116;-62
2023/04/26 03:33:57;;;;;;;4.25;1.48;;;;;;;;;;5093789;28;20051;-62
2023/04/26 03:36:23;;;;;;;3.90;1.42;;;;;;;;;;5108567;28;20039;-67
2023/04/26 03:38:50;;;;;;;4.65;1.55;;;16.40;76.80;;;;;;5103606;28;20048;-67
2023/04/26 03:41:16;;;;;;;6.68;1.85;;;16.30;76.90;;;;;;5104080;28;20054;-66
2023/04/26 03:43:42;;;;;;;3.45;1.52;;;16.30;76.00;;;;;;5093838;28;20039;-67
2023/04/26 03:46:08;;;;;;;3.70;1.48;;;;;;;;;;5110111;28;20083;-67
2023/04/26 03:48:33;;;;;;;4.43;1.50;;;16.30;79.20;;;;;;5110442;28;20404;-67
2023/04/26 03:50:59;;;;;;;6.68;1.67;;;;;;;;;;5110489;28;20126;-67
2023/04/26 03:53:25;;;;;;;4.25;1.40;;;16.10;76.20;;;;;;5093699;28;20123;-67
2023/04/26 03:55:51;;;;;;;5.63;1.58;;;;;;;;;;5103615;28;20127;-67
2023/04/26 03:58:17;;;;;;;5.07;1.52;;;;;;;;;;5108253;28;20036;-67
2023/04/26 04:00:44;;;;;;;4.20;1.40;;;;;;;;;;5093072;28;20055;-66
2023/04/26 04:03:10;;;;;;;5.20;2.05;;;;;;;;;;5093387;28;20040;-65
2023/04/26 04:05:35;;;;;;;4.85;1.60;;;16.30;79.40;;;;;;5111511;28;20039;-67
2023/04/26 04:08:01;;;;;;;5.82;1.45;;;16.30;79.40;;;;;;5092619;28;20497;-62
2023/04/26 04:10:27;;;;;;;3.83;1.48;;;16.20;75.70;;;;;;5112156;28;20106;-62
2023/04/26 04:12:53;;;;;;;3.85;1.48;;;16.20;79.50;;;;;;5084619;28;20048;-62
2023/04/26 04:15:20;;;;;;;4.90;1.90;;;;;;;;;;5094276;28;20063;-63
2023/04/26 04:17:46;;;;;;;3.80;1.27;;;;;;;;;;5093611;28;20040;-62
2023/04/26 04:20:12;;;;;;;4.90;1.45;;;;;;;;;;5094355;28;20043;-61
2023/04/26 04:22:39;;;;;;;2.95;1.38;;;;;;;;;;5094211;28;20397;-64
2023/04/26 04:25:06;;;;;;;5.03;1.67;;;16.10;76.00;;;;;;5112068;28;20064;-63
2023/04/26 04:27:32;;;;;;;5.05;1.35;;;;;;;;;;5076513;28;20488;-64
2023/04/26 04:30:02;;;;;;;3.25;1.48;;;;;;;;;;5102381;28;20046;-67
2023/04/26 04:32:28;;;;;;;4.63;1.42;;;16.30;76.40;;;;;;5094733;28;20539;-67
2023/04/26 04:34:55;;;;;;;2.70;1.10;;;16.40;78.00;;;;;;5097252;28;20057;-67
2023/04/26 04:37:21;;;;;;;2.60;0.98;;;16.30;79.60;;;;;;5115914;28;20397;-66
2023/04/26 04:39:47;;;;;;;3.00;1.13;;;16.20;79.50;;;;;;5116100;28;20147;-67
2023/04/26 04:42:14;;;;;;;3.25;1.20;;;;;;;;;;5095560;28;20560;-67
2023/04/26 04:44:40;;;;;;;3.90;1.40;;;16.40;79.60;;;;;;5097890;28;20051;-67
2023/04/26 04:47:06;;;;;;;2.75;1.10;;;16.20;76.80;;;;;;5100094;28;20386;-66
2023/04/26 04:49:31;;;;;;;3.50;1.30;;;16.20;79.60;;;;;;5060913;28;20154;-66
2023/04/26 04:51:57;;;;;;;3.15;1.13;;;16.10;79.50;;;;;;5088525;28;20389;-67
2023/04/26 04:54:23;;;;;;;4.30;1.30;;;16.10;77.30;;;;;;5115448;28;20442;-66
2023/04/26 04:56:50;;;;;;;1.95;1.08;;;;;;;;;;5114635;28;20121;-67
2023/04/26 04:59:16;;;;;;;3.72;1.30;;;;;;;;;;5097004;28;20484;-67
2023/04/26 05:01:42;;;;;;;3.58;1.20;;;16.50;79.60;;;;;;5097272;28;20047;-66
2023/04/26 05:04:07;;;;;;;2.42;1.20;;;16.50;79.40;;;;;;5086161;28;20048;-67
2023/04/26 05:06:34;;;;;;;2.95;1.23;;;;;;;;;;5085111;28;20169;-65
2023/04/26 05:09:00;;;;;;;3.70;1.48;;;;;;;;;;5109757;28;20385;-65
2023/04/26 05:11:26;;;;;;;2.65;1.27;;;16.80;76.60;;;;;;5093481;28;20043;-66
2023/04/26 05:13:52;;;;;;;4.38;1.30;;;;;;;;;;5095024;28;20137;-66
2023/04/26 05:16:18;;;;;;;4.38;1.40;;;;;;;;;;5112139;28;20032;-67
2023/04/26 05:18:44;;;;;;;2.17;1.10;;;16.90;75.70;;;;;;5112557;28;20039;-66
2023/04/26 05:21:10;;;;;;;3.65;1.30;;;;;;;;;;5113393;28;20132;-66
2023/04/26 05:23:36;;;;;;;3.53;1.20;;;;;;;;;;5113912;28;20439;-67
2023/04/26 05:26:06;;;;;;;3.95;1.48;;;;;;;;;;5093639;28;20091;-66
2023/04/26 05:28:33;;;;;;;4.05;1.38;;;;;;;;;;5111634;28;20557;-66
2023/04/26 05:31:00;;;;;;;4.70;1.60;;;17.30;77.60;;;;;;5112228;28;20036;-67
2023/04/26 05:33:29;;;;;;;4.03;1.30;;;;;;;;;;5096285;28;20130;-66
2023/04/26 05:35:56;;;;;;;3.28;1.20;;;;;;;;;;5114763;28;20056;-67
2023/04/26 05:38:23;;;;;;;4.15;1.20;;;;;;;;;;5084203;28;20048;-67
2023/04/26 05:40:49;;;;;;;3.40;1.20;;;;;;;;;;5092629;28;20441;-67
2023/04/26 05:43:15;;;;;;;5.78;1.98;;;17.70;77.60;;;;;;5113849;28;20070;-68
2023/04/26 05:45:50;;;;;;;3.25;1.20;;;17.90;74.70;;;;;;5113576;28;20082;-66
2023/04/26 05:48:16;;;;;;;3.80;1.40;;;;;;;;;;5085442;28;20055;-67
2023/04/26 05:50:43;;;;;;;4.50;1.40;;;;;;;;;;5104120;28;20047;-67
2023/04/26 05:53:08;;;;;;;2.90;1.02;;;18.20;74.50;;;;;;5095939;28;20493;-67
2023/04/26 05:55:35;;;;;;;3.90;1.38;;;18.10;75.80;;;;;;5064661;28;20060;-62
2023/04/26 05:58:01;;;;;;;2.15;1.27;;;;;;;;;;5087254;28;20051;-66
2023/04/26 06:00:27;;;;;;;5.40;1.35;;;18.30;76.70;;;;;;5095281;28;20435;-67
2023/04/26 06:02:53;;;;;;;3.05;1.20;;;18.50;74.10;;;;;;5095876;28;20048;-66
2023/04/26 06:05:19;;;;;;;5.00;1.25;;;18.50;76.70;;;;;;5095764;28;20048;-67
2023/04/26 06:07:45;;;;;;;3.70;1.30;;;18.60;75.50;;;;;;5095177;28;20408;-66
2023/04/26 06:10:12;;;;;;;2.85;1.23;;;18.90;76.70;;;;;;5112763;28;20054;-65
2023/04/26 06:12:38;;;;;;;2.97;1.23;;;18.70;76.00;;;;;;5098900;28;20397;-62
2023/04/26 06:15:04;;;;;;;3.58;1.25;;;18.90;73.80;;;;;;5075666;28;20040;-61
2023/04/26 06:17:30;;;;;;;2.20;0.93;;;;;;;;;;5093742;28;20052;-64
2023/04/26 06:19:56;;;;;;;2.58;1.10;;;;;;;;;;5094255;28;20039;-61
2023/04/26 06:22:22;;;;;;;2.80;1.20;;;19.10;76.00;;;;;;5112659;28;20084;-61
2023/04/26 06:24:49;;;;;;;4.60;1.30;;;;;;;;;;5113513;28;20458;-61
2023/04/26 06:27:15;;;;;;;3.60;1.33;;;;;;;;;;5113930;28;20503;-63
2023/04/26 06:29:42;;;;;;;4.00;1.30;;;;;;;;;;5091431;28;20055;-61
2023/04/26 06:32:08;;;;;;;2.38;1.35;;;;;;;;;;5086497;28;20048;-63
2023/04/26 06:34:36;;;;;;;3.15;1.17;;;;;;;;;;5107284;28;20088;-61
2023/04/26 06:37:01;;;;;;;2.58;1.10;;;19.80;75.30;;;;;;5093470;28;20385;-63
2023/04/26 06:39:27;;;;;;;4.07;1.20;;;19.70;75.20;;;;;;5090936;28;20051;-67
2023/04/26 06:41:53;;;;;;;3.72;1.33;;;19.60;75.10;;;;;;5113019;28;20043;-63
2023/04/26 06:44:19;;;;;;;3.45;1.23;;;;;;;;;;5113393;28;20126;-65
2023/04/26 06:46:45;;;;;;;4.97;1.35;;;19.70;72.60;;;;;;5108170;28;20052;-61
2023/04/26 06:49:11;;;;;;;5.95;1.58;;;;;;;;;;5093219;28;20048;-63
2023/04/26 06:51:37;;;;;;;3.28;1.35;;;19.60;73.50;;;;;;5082042;28;20043;-62
2023/04/26 06:54:03;;;;;;;4.30;1.10;;;;;;;;;;5112528;28;20051;-64
2023/04/26 06:56:29;;;;;;;3.08;1.30;;;20.10;74.80;;;;;;5103982;28;20047;-66
2023/04/26 06:59:04;;;;;;;5.63;1.60;;;20.10;73.40;;;;;;5090777;28;20043;-65
2023/04/26 07:01:32;;;;;;;4.38;1.38;;;19.70;71.50;;;;;;5089322;28;20506;-65
2023/04/26 07:04:02;;;;;;;5.63;1.42;;;19.80;74.00;;;;;;5094846;28;20047;-66
2023/04/26 07:06:28;;;;;;;3.10;1.40;;;19.70;74.80;;;;;;5084410;28;20564;-62
2023/04/26 07:08:54;;;;;;;4.32;1.60;;;;;;;;;;5113318;28;20173;-64
2023/04/26 07:11:20;;;;;;;3.22;1.40;;;;;;;;;;5111842;28;20039;-63
2023/04/26 07:13:46;;;;;;;3.20;1.30;;;20.00;75.00;;;;;;5112205;28;20051;-64
2023/04/26 07:16:12;;;;;;;3.80;1.10;;;19.90;72.70;;;;;;5112365;28;20047;-62
2023/04/26 07:18:39;;;;;;;3.65;1.20;;;20.10;72.10;;;;;;5112617;28;20131;-63
2023/04/26 07:21:05;;;;;;;3.95;1.40;;;;;;;;;;5098686;28;20085;-61
2023/04/26 07:23:31;;;;;;;7.88;1.42;;;20.00;71.60;;;;;;5113045;28;20386;-62
2023/04/26 07:25:57;;;;;;;2.85;1.20;;;20.40;74.80;;;;;;5094475;28;20055;-64
2023/04/26 07:28:23;;;;;;;4.50;1.27;;;;;;;;;;5111999;28;20516;-65
2023/04/26 07:30:49;;;;;;;3.40;1.42;;;20.40;74.30;;;;;;5111519;28;20111;-62
2023/04/26 07:33:15;;;;;;;2.97;1.40;;;20.30;74.30;;;;;;5111873;28;20480;-64
2023/04/26 07:35:42;;;;;;;3.38;1.40;;;20.40;74.20;;;;;;5109442;28;20050;-65
2023/04/26 07:38:08;;;;;;;5.18;1.63;;;20.20;71.40;;;;;;5107949;28;20415;-65
2023/04/26 07:40:35;;;;;;;2.78;1.30;;;20.40;73.90;;;;;;5107187;28;20531;-65
2023/04/26 07:43:01;;;;;;;5.45;1.60;;;;;;;;;;5085367;28;21742;-64
2023/04/26 07:45:27;;;;;;;4.75;1.73;;;20.90;73.10;;;;;;5106674;28;20121;-64
2023/04/26 07:47:53;;;;;;;3.95;1.40;;;;;;;;;;5110216;28;20587;-66
2023/04/26 07:50:19;;;;;;;4.07;1.50;;;20.50;73.80;;;;;;5093661;28;20130;-69
2023/04/26 07:52:45;;;;;;;4.90;1.58;;;20.40;73.20;;;;;;5109366;28;20051;-67
2023/04/26 07:55:11;;;;;;;3.33;1.42;;;20.60;72.80;;;;;;5089068;28;20056;-67
2023/04/26 07:57:37;;;;;;;4.13;1.50;;;20.40;73.50;;;;;;5110030;28;20044;-66
2023/04/26 08:00:06;;;;;;;6.00;1.50;;;20.10;72.10;;;;;;5092457;28;20048;-64
2023/04/26 08:02:32;;;;;;;3.60;1.58;;;20.20;71.50;;;;;;5111576;28;20036;-62
2023/04/26 08:04:58;;;;;;;4.82;1.52;;;;;;;;;;5094155;28;20440;-62
2023/04/26 08:07:25;;;;;;;4.40;1.70;;;;;;;;;;5110780;28;20074;-62
2023/04/26 08:09:51;;;;;;;4.90;1.80;;;20.30;72.50;;;;;;5111503;28;20107;-65
2023/04/26 08:12:17;;;;;;;4.63;1.70;;;20.20;74.70;;;;;;5108726;28;20035;-64
2023/04/26 08:14:42;;;;;;;5.00;1.90;;;20.10;74.80;;;;;;5115927;28;20051;-61
2023/04/26 08:17:08;;;;;;;5.07;1.75;;;;;;;;;;5108782;28;20044;-65
2023/04/26 08:19:35;;;;;;;6.68;1.90;;;20.10;71.80;;;;;;5097339;28;20059;-67
2023/04/26 08:22:01;;;;;;;6.65;1.88;;;20.20;72.60;;;;;;5115360;28;20477;-61
2023/04/26 08:24:27;;;;;;;5.68;1.67;;;;;;;;;;5112020;28;20062;-64
2023/04/26 08:26:53;;;;;;;4.35;1.73;;;20.30;72.70;;;;;;5086703;28;20106;-68
2023/04/26 08:29:19;;;;;;;6.00;1.42;;;20.30;74.50;;;;;;5068722;28;20490;-65
2023/04/26 08:31:45;;;;;;;4.20;1.67;;;20.20;73.40;;;;;;5068069;28;20084;-65
2023/04/26 08:34:12;;;;;;;7.00;1.60;;;19.90;72.10;;;;;;5073979;28;20114;-66
2023/04/26 08:36:38;;;;;;;4.30;1.45;;;;;;;;;;5071192;28;20037;-65
2023/04/26 08:39:05;;;;;;;4.20;1.60;;;;;;;;;;5074210;28;20052;-65
2023/04/26 08:41:35;;;;;;;4.75;1.52;;;19.80;75.30;;;;;;5072942;28;20040;-65
2023/04/26 08:44:04;;;;;;;5.22;1.58;;;;;;;;;;5072663;28;20401;-68
2023/04/26 08:46:33;;;;;;;6.07;1.77;;;20.00;72.80;;;;;;5072410;28;20079;-62
2023/04/26 08:49:29;;;;;;;4.22;2.05;;;19.80;73.00;;;;;;5072359;28;20048;-62
2023/04/26 08:51:54;;;;;;;4.47;1.80;;;19.80;76.00;;;;;;5071102;28;20095;-61
2023/04/26 08:54:21;;;;;;;6.07;1.85;;;;;;;;;;5072122;28;20075;-63
2023/04/26 08:56:46;;;;;;;4.53;1.60;;;19.80;76.20;;;;;;5071534;28;20051;-67
2023/04/26 08:59:12;;;;;;;5.05;1.90;;;;;;;;;;5066557;28;20049;-65
2023/04/26 09:01:38;;;;;;;4.65;1.88;;;19.80;76.30;;;;;;5068766;28;20041;-65
2023/04/26 09:04:04;;;;;;;4.60;1.85;;;19.70;76.30;;;;;;5074544;28;20051;-66
2023/04/26 09:06:31;;;;;;;3.75;1.73;;;19.80;76.40;;;;;;5085728;28;20076;-65
2023/04/26 09:08:57;;;;;;;6.28;1.98;;;19.40;76.20;;;;;;5038627;28;20131;-62
2023/04/26 09:11:23;;;;;;;7.03;2.15;;;;;;;;;;5072109;28;20675;-62
2023/04/26 09:13:49;;;;;;;5.13;1.92;;;19.70;76.50;;;;;;5072853;28;20390;-64
2023/04/26 09:16:15;;;;;;;5.40;2.22;;;19.60;76.30;;;;;;5071486;28;20048;-64
2023/04/26 09:18:50;;;;;;;6.43;1.70;;;19.70;72.30;;;;;;5065527;28;20091;-63
2023/04/26 09:21:18;;;;;;;7.13;2.20;;;;;;;;;;5076753;28;20094;-64
2023/04/26 09:24:00;;;;;;;4.85;1.70;;;19.50;72.50;;;;;;5064799;28;20040;-63
2023/04/26 09:26:26;;;;;;;4.78;1.90;;;;;;;;;;5099543;28;20477;-68
2023/04/26 09:29:17;;;;;;;6.43;1.80;;;19.60;74.30;;;;;;5106216;28;20108;-64
2023/04/26 09:31:47;;;;;;;3.65;1.48;;;19.40;72.30;;;;;;5107034;28;20048;-65
2023/04/26 09:34:13;;;;;;;4.72;1.80;;;19.30;74.20;;;;;;5112602;28;20047;-63
2023/04/26 09:36:52;;;;;;;4.00;1.58;;;19.40;72.90;;;;;;5096311;28;20039;-65
2023/04/26 09:39:38;;;;;;;5.35;1.70;;;19.50;73.10;;;;;;5091861;28;20500;-66
2023/04/26 09:42:05;;;;;;;5.05;1.70;;;19.50;73.30;;;;;;5108082;28;20039;-65
2023/04/26 09:44:31;;;;;;;4.45;1.60;;;;;;;;;;5113136;28;20044;-67
2023/04/26 09:47:01;;;;;;;7.80;1.90;;;19.80;77.00;;;;;;5110002;28;20040;-62
2023/04/26 09:49:29;;;;;;;3.90;1.50;;;19.20;76.00;;;;;;5108350;28;20040;-65
2023/04/26 09:52:02;;;;;;;6.32;1.83;;;19.60;72.70;;;;;;5110257;28;20556;-63
2023/04/26 09:54:39;;;;;;;5.75;1.63;;;19.40;72.80;;;;;;5105212;28;20036;-65
2023/04/26 09:57:05;;;;;;;4.25;1.40;;;19.70;77.60;;;;;;5110882;28;20047;-63
2023/04/26 09:59:42;;;;;;;5.30;1.80;;;19.50;73.20;;;;;;5111076;28;20040;-64
2023/04/26 10:02:14;;;;;;;4.00;1.60;;;;;;;;;;5103658;28;20055;-65
2023/04/26 10:04:42;;;;;;;4.82;1.50;;;19.60;74.40;;;;;;5084636;28;20047;-66
2023/04/26 10:07:08;;;;;;;3.70;1.50;;;19.70;77.60;;;;;;5095802;28;20079;-65
2023/04/26 10:09:34;;;;;;;4.03;1.70;;;19.70;74.90;;;;;;5105348;28;20389;-65
2023/04/26 10:12:00;;;;;;;5.40;1.80;;;19.60;77.40;;;;;;5092623;28;20039;-66
2023/04/26 10:14:27;;;;;;;5.28;1.45;;;;;;;;;;5095612;28;20092;-64
2023/04/26 10:16:53;;;;;;;6.57;1.75;;;19.60;77.50;;;;;;5112619;28;20048;-64
2023/04/26 10:19:20;;;;;;;4.43;1.58;;;;;;;;;;5076752;28;20591;-64
2023/04/26 10:21:45;;;;;;;5.55;1.70;;;19.70;76.20;;;;;;5095003;28;20071;-62
2023/04/26 10:24:12;;;;;;;4.93;1.50;;;;;;;;;;5074646;28;20468;-64
2023/04/26 10:26:51;;;;;;;5.30;1.80;;;19.80;72.90;;;;;;5085625;28;20048;-66
2023/04/26 10:29:18;;;;;;;4.30;1.67;;;19.90;77.60;;;;;;5092828;28;20382;-65
2023/04/26 10:32:05;;;;;;;3.35;1.45;;;19.80;73.50;;;;;;5090855;28;20123;-65
2023/04/26 10:34:34;;;;;;;3.17;1.33;;;19.90;75.10;;;;;;5089151;28;20036;-65
2023/04/26 10:37:10;;;;;;;4.15;1.85;;;;;;;;;;5079554;28;20106;-61
2023/04/26 10:39:39;;;;;;;5.90;1.40;;;19.80;74.20;;;;;;5093406;28;20111;-65
2023/04/26 10:42:24;;;;;;;4.13;1.63;;;19.80;73.50;;;;;;5075329;28;20052;-62
2023/04/26 10:44:56;;;;;;;4.38;1.77;;;19.70;77.50;;;;;;5088274;28;20044;-66
2023/04/26 10:47:32;;;;;;;4.80;1.50;;;19.60;77.10;;;;;;5091814;28;20032;-62
2023/04/26 10:50:10;;;;;;;3.30;1.42;;;19.70;74.70;;;;;;5093171;28;20140;-62
2023/04/26 10:52:57;;;;;;;3.67;1.52;;;19.60;74.70;;;;;;5091484;28;20044;-62
2023/04/26 10:55:42;;;;;;;3.88;1.30;;;19.50;73.10;;;;;;5086963;28;20036;-66
2023/04/26 10:58:27;;;;;;;6.10;1.85;;;;;;;;;;5088201;28;20117;-66
2023/04/26 11:01:05;;;;;;;5.13;1.45;;;19.60;77.40;;;;;;5081720;28;20041;-62
2023/04/26 11:03:31;;;;;;;4.88;1.52;;;;;;;;;;5080207;28;20060;-66
2023/04/26 11:05:57;;;;;;;2.83;1.27;;;19.20;77.10;;;;;;5074616;28;20457;-65
2023/04/26 11:08:30;;;;;;;5.20;1.40;;;19.50;77.20;;;;;;5089308;28;20028;-62
2023/04/26 11:11:02;;;;;;;5.78;1.70;;;19.50;72.70;;;;;;5093043;28;20044;-64
2023/04/26 11:13:34;;;;;;;3.47;1.10;;;;;;;;;;5087996;28;20397;-66
2023/04/26 11:16:03;;;;;;;3.88;1.40;;;19.10;72.90;;;;;;5091191;28;20043;-67
2023/04/26 11:18:32;;;;;;;5.82;1.27;;;19.40;74.80;;;;;;5088257;28;20048;-64
2023/04/26 11:20:58;;;;;;;3.33;1.27;;;19.20;74.60;;;;;;5082714;28;20048;-65
2023/04/26 11:23:26;;;;;;;5.47;1.50;;;19.40;74.20;;;;;;5090201;28;20512;-64
2023/04/26 11:25:53;;;;;;;3.63;1.13;;;19.50;77.20;;;;;;5100673;28;20116;-63
2023/04/26 11:28:22;;;;;;;5.15;1.50;;;19.60;74.80;;;;;;5108859;28;20050;-63
2023/04/26 11:30:48;;;;;;;4.40;1.55;;;19.60;74.40;;;;;;5094556;28;20062;-63
2023/04/26 11:33:21;;;;;;;4.40;1.33;;;19.40;77.00;;;;;;5090605;28;20420;-66
2023/04/26 11:35:47;;;;;;;4.07;1.33;;;;;;;;;;5106654;28;20482;-68
2023/04/26 11:38:14;;;;;;;5.10;1.20;;;;;;;;;;5111316;28;20067;-64
2023/04/26 11:40:40;;;;;;;4.53;1.40;;;19.40;77.40;;;;;;5113075;28;20051;-66
2023/04/26 11:43:07;;;;;;;4.82;1.58;;;19.40;77.20;;;;;;5107940;28;20036;-66
2023/04/26 11:45:34;;;;;;;3.90;1.40;;;;;;;;;;5110500;28;20054;-66
2023/04/26 11:48:01;;;;;;;3.05;1.35;;;19.40;77.60;;;;;;5097233;28;20083;-63
2023/04/26 11:50:27;;;;;;;4.07;1.15;;;;;;;;;;5061035;28;20131;-65
2023/04/26 11:52:57;;;;;;;4.15;1.40;;;19.30;72.90;;;;;;5110636;28;20044;-67
2023/04/26 11:55:24;;;;;;;4.57;1.88;;;;;;;;;;5098184;28;20396;-65
2023/04/26 11:57:50;;;;;;;3.72;1.35;;;19.10;77.60;;;;;;5112834;28;20040;-64
2023/04/26 12:00:17;;;;;;;4.95;1.40;;;;;;;;;;5114962;28;20393;-64
2023/04/26 12:02:46;;;;;;;4.70;1.40;;;19.20;74.90;;;;;;5112668;28;20185;-64
2023/04/26 12:05:25;;;;;;;13.30;2.05;;;19.30;73.90;;;;;;5112175;28;20430;-63
2023/04/26 12:07:52;;;;;;;6.72;1.45;;;19.10;78.40;;;;;;5116278;28;20043;-62
2023/04/26 12:10:21;;;;;;;7.13;1.80;;;18.90;75.20;;;;;;5106593;28;20051;-63
2023/04/26 12:12:48;;;;;;;9.45;1.77;;;19.30;78.70;;;;;;5112622;28;20132;-63
2023/04/26 12:15:14;;;;;;;7.25;1.75;;;;;;;;;;5113798;28;20484;-61
2023/04/26 12:17:40;;;;;;;6.35;1.70;;;;;;;;;;5113170;28;20173;-62
2023/04/26 12:20:10;;;;;;;8.75;1.80;;;19.10;75.20;;;;;;5116015;28;20481;-65
2023/04/26 12:22:36;;;;;;;7.03;1.55;;;19.00;75.70;;;;;;5111704;28;20053;-66
2023/04/26 12:25:05;;;;;;;9.90;2.15;;;19.10;75.90;;;;;;5113687;28;20044;-66
2023/04/26 12:27:33;;;;;;;6.25;1.60;;;;;;;;;;5110511;28;20046;-62
2023/04/26 12:29:58;;;;;;;4.22;1.45;;;19.20;78.80;;;;;;5095848;28;20044;-63
2023/04/26 12:32:25;;;;;;;5.18;1.60;;;19.20;78.70;;;;;;5094616;28;20062;-64
2023/04/26 12:34:50;;;;;;;4.07;1.33;;;19.20;77.50;;;;;;5113618;28;20051;-62
2023/04/26 12:37:16;;;;;;;3.75;1.20;;;19.30;78.80;;;;;;5114646;28;20499;-63
2023/04/26 12:39:43;;;;;;;8.50;2.00;;;;;;;;;;5105920;28;20558;-67
2023/04/26 12:42:09;;;;;;;3.97;1.48;;;19.50;78.60;;;;;;5111349;28;20122;-66
2023/04/26 12:44:35;;;;;;;5.35;1.70;;;19.40;78.80;;;;;;5111831;28;20528;-66
2023/04/26 12:47:01;;;;;;;8.85;1.60;;;;;;;;;;5115685;28;20131;-63
2023/04/26 12:49:29;;;;;;;6.38;1.65;;;;;;;;;;5113281;28;20078;-62
2023/04/26 12:51:55;;;;;;;4.68;1.48;;;19.20;79.00;;;;;;5101334;28;20075;-66
2023/04/26 12:54:21;;;;;;;5.35;1.58;;;19.60;79.20;;;;;;5095300;28;20110;-63
2023/04/26 12:56:47;;;;;;;3.63;1.38;;;19.30;77.90;;;;;;5115326;28;20169;-61
2023/04/26 12:59:13;;;;;;;5.03;1.30;;;19.50;79.10;;;;;;5093576;28;20116;-62
2023/04/26 13:01:38;;;;;;;8.90;2.25;;;19.50;78.70;;;;;;5111593;28;20154;-68
2023/04/26 13:04:05;;;;;;;4.05;1.50;;;19.30;75.90;;;;;;5115689;28;20150;-63
2023/04/26 13:06:31;;;;;;;4.93;1.45;;;19.30;78.80;;;;;;5113454;28;20044;-62
2023/04/26 13:08:57;;;;;;;8.82;1.70;;;;;;;;;;5115623;28;20082;-61
2023/04/26 13:11:23;;;;;;;3.42;1.55;;;;;;;;;;5111940;28;20090;-64
2023/04/26 13:13:49;;;;;;;5.05;1.50;;;19.30;77.00;;;;;;5114247;28;20042;-62
2023/04/26 13:16:15;;;;;;;4.75;1.30;;;19.30;78.90;;;;;;5108990;28;20044;-62
2023/04/26 13:18:41;;;;;;;4.63;1.73;;;19.40;79.00;;;;;;5106087;28;20039;-62
2023/04/26 13:21:07;;;;;;;4.05;1.35;;;;;;;;;;5112706;28;20105;-64
2023/04/26 13:23:33;;;;;;;7.32;1.40;;;;;;;;;;5113568;28;20118;-61
2023/04/26 13:25:59;;;;;;;2.53;1.20;;;19.30;79.10;;;;;;5112504;28;20154;-62
2023/04/26 13:28:25;;;;;;;7.53;1.58;;;;;;;;;;5113559;28;20079;-62